sensor_id;sensor_type;location;lat;lon;timestamp;P1;durP1;ratioP1;P2;durP2;ratioP2
1380;SDS011;684;48.342;10.096;2022-10-30T00:00:24;16.50;;;9.03;;
1380;SDS011;684;48.342;10.096;2022-10-30T00:02:51;16.07;;;8.00;;
1380;SDS011;684;48.342;10.096;2022-10-30T00:05:18;16.03;;;7.67;;
1380;SDS011;684;48.342;10.096;2022-10-30T00:07:47;16.40;;;7.63;;
1380;SDS011;684;48.342;10.096;2022-10-30T00:10:14;15.93;;;7.97;;
1380;SDS011;684;48.342;10.096;2022-10-30T00:12:42;15.10;;;7.70;;
1380;SDS011;684;48.342;10.096;2022-10-30T00:15:09;21.77;;;8.10;;
1380;SDS011;684;48.342;10.096;2022-10-30T00:17:37;19.10;;;8.60;;
1380;SDS011;684;48.342;10.096;2022-10-30T00:20:04;25.07;;;8.83;;
1380;SDS011;684;48.342;10.096;2022-10-30T00:22:31;14.47;;;8.03;;
1380;SDS011;684;48.342;10.096;2022-10-30T00:25:01;17.93;;;8.37;;
1380;SDS011;684;48.342;10.096;2022-10-30T00:27:28;14.37;;;7.80;;
1380;SDS011;684;48.342;10.096;2022-10-30T00:29:55;14.60;;;8.53;;
1380;SDS011;684;48.342;10.096;2022-10-30T00:32:22;12.70;;;8.10;;
1380;SDS011;684;48.342;10.096;2022-10-30T00:34:48;13.93;;;8.20;;
1380;SDS011;684;48.342;10.096;2022-10-30T00:37:15;13.93;;;8.33;;
1380;SDS011;684;48.342;10.096;2022-10-30T00:39:42;16.13;;;8.50;;
1380;SDS011;684;48.342;10.096;2022-10-30T00:42:11;16.17;;;7.93;;
1380;SDS011;684;48.342;10.096;2022-10-30T00:44:40;18.93;;;7.67;;
1380;SDS011;684;48.342;10.096;2022-10-30T00:47:12;16.67;;;8.03;;
1380;SDS011;684;48.342;10.096;2022-10-30T00:49:47;17.70;;;8.73;;
1380;SDS011;684;48.342;10.096;2022-10-30T00:52:18;16.83;;;9.53;;
1380;SDS011;684;48.342;10.096;2022-10-30T00:54:47;13.33;;;8.20;;
1380;SDS011;684;48.342;10.096;2022-10-30T00:57:16;14.43;;;7.80;;
1380;SDS011;684;48.342;10.096;2022-10-30T00:59:44;17.07;;;8.70;;
1380;SDS011;684;48.342;10.096;2022-10-30T01:02:11;19.10;;;8.70;;
1380;SDS011;684;48.342;10.096;2022-10-30T01:04:38;15.53;;;8.77;;
1380;SDS011;684;48.342;10.096;2022-10-30T01:07:09;16.80;;;7.93;;
1380;SDS011;684;48.342;10.096;2022-10-30T01:09:37;15.33;;;7.27;;
1380;SDS011;684;48.342;10.096;2022-10-30T01:12:05;11.83;;;7.13;;
1380;SDS011;684;48.342;10.096;2022-10-30T01:14:34;12.73;;;7.17;;
1380;SDS011;684;48.342;10.096;2022-10-30T01:17:09;14.90;;;8.60;;
1380;SDS011;684;48.342;10.096;2022-10-30T01:19:46;15.73;;;6.90;;
1380;SDS011;684;48.342;10.096;2022-10-30T01:22:28;17.87;;;8.03;;
1380;SDS011;684;48.342;10.096;2022-10-30T01:25:08;15.17;;;9.07;;
1380;SDS011;684;48.342;10.096;2022-10-30T01:27:46;17.10;;;8.43;;
1380;SDS011;684;48.342;10.096;2022-10-30T01:30:29;15.53;;;8.07;;
1380;SDS011;684;48.342;10.096;2022-10-30T01:33:10;26.50;;;10.47;;
1380;SDS011;684;48.342;10.096;2022-10-30T01:35:49;17.83;;;8.17;;
1380;SDS011;684;48.342;10.096;2022-10-30T01:38:22;17.03;;;9.97;;
1380;SDS011;684;48.342;10.096;2022-10-30T01:40:54;17.40;;;8.93;;
1380;SDS011;684;48.342;10.096;2022-10-30T01:43:21;15.17;;;8.70;;
1380;SDS011;684;48.342;10.096;2022-10-30T01:49:08;15.10;;;8.10;;
1380;SDS011;684;48.342;10.096;2022-10-30T01:51:49;16.33;;;9.63;;
1380;SDS011;684;48.342;10.096;2022-10-30T01:54:24;16.17;;;10.17;;
1380;SDS011;684;48.342;10.096;2022-10-30T01:56:59;17.07;;;9.40;;
1380;SDS011;684;48.342;10.096;2022-10-30T01:59:31;17.53;;;9.90;;
1380;SDS011;684;48.342;10.096;2022-10-30T02:02:03;17.07;;;9.10;;
1380;SDS011;684;48.342;10.096;2022-10-30T02:04:30;15.90;;;8.80;;
1380;SDS011;684;48.342;10.096;2022-10-30T02:06:57;22.00;;;9.73;;
1380;SDS011;684;48.342;10.096;2022-10-30T02:09:24;13.70;;;8.80;;
1380;SDS011;684;48.342;10.096;2022-10-30T02:11:51;17.63;;;9.43;;
1380;SDS011;684;48.342;10.096;2022-10-30T02:14:20;14.37;;;8.90;;
1380;SDS011;684;48.342;10.096;2022-10-30T02:16:51;14.73;;;9.13;;
1380;SDS011;684;48.342;10.096;2022-10-30T02:19:23;14.33;;;8.93;;
1380;SDS011;684;48.342;10.096;2022-10-30T02:21:51;15.43;;;9.47;;
1380;SDS011;684;48.342;10.096;2022-10-30T02:24:18;19.23;;;10.47;;
1380;SDS011;684;48.342;10.096;2022-10-30T02:26:45;16.27;;;9.60;;
1380;SDS011;684;48.342;10.096;2022-10-30T02:29:11;18.60;;;10.07;;
1380;SDS011;684;48.342;10.096;2022-10-30T02:31:38;15.63;;;9.03;;
1380;SDS011;684;48.342;10.096;2022-10-30T02:34:05;16.63;;;9.23;;
1380;SDS011;684;48.342;10.096;2022-10-30T02:36:32;16.13;;;8.97;;
1380;SDS011;684;48.342;10.096;2022-10-30T02:39:00;16.30;;;9.30;;
1380;SDS011;684;48.342;10.096;2022-10-30T02:41:27;16.83;;;9.70;;
1380;SDS011;684;48.342;10.096;2022-10-30T02:43:54;15.33;;;8.80;;
1380;SDS011;684;48.342;10.096;2022-10-30T02:46:21;18.37;;;8.47;;
1380;SDS011;684;48.342;10.096;2022-10-30T02:48:48;16.20;;;8.00;;
1380;SDS011;684;48.342;10.096;2022-10-30T02:51:14;14.03;;;7.57;;
1380;SDS011;684;48.342;10.096;2022-10-30T02:53:44;17.00;;;7.50;;
1380;SDS011;684;48.342;10.096;2022-10-30T02:56:12;16.97;;;7.87;;
1380;SDS011;684;48.342;10.096;2022-10-30T02:58:39;16.57;;;8.43;;
1380;SDS011;684;48.342;10.096;2022-10-30T03:01:07;15.63;;;7.67;;
1380;SDS011;684;48.342;10.096;2022-10-30T03:03:34;13.20;;;7.77;;
1380;SDS011;684;48.342;10.096;2022-10-30T03:06:02;13.60;;;7.47;;
1380;SDS011;684;48.342;10.096;2022-10-30T03:08:30;14.47;;;7.60;;
1380;SDS011;684;48.342;10.096;2022-10-30T03:11:00;23.80;;;8.43;;
1380;SDS011;684;48.342;10.096;2022-10-30T03:13:30;16.37;;;8.70;;
1380;SDS011;684;48.342;10.096;2022-10-30T03:15:58;15.27;;;9.17;;
1380;SDS011;684;48.342;10.096;2022-10-30T03:18:26;16.67;;;8.70;;
1380;SDS011;684;48.342;10.096;2022-10-30T03:20:56;17.20;;;8.33;;
1380;SDS011;684;48.342;10.096;2022-10-30T03:23:23;13.17;;;8.10;;
1380;SDS011;684;48.342;10.096;2022-10-30T03:25:51;19.17;;;9.60;;
1380;SDS011;684;48.342;10.096;2022-10-30T03:28:19;14.37;;;8.93;;
1380;SDS011;684;48.342;10.096;2022-10-30T03:30:48;19.87;;;9.77;;
1380;SDS011;684;48.342;10.096;2022-10-30T03:33:15;20.50;;;8.90;;
1380;SDS011;684;48.342;10.096;2022-10-30T03:35:42;16.40;;;9.33;;
1380;SDS011;684;48.342;10.096;2022-10-30T03:38:10;15.07;;;7.77;;
1380;SDS011;684;48.342;10.096;2022-10-30T03:40:37;11.80;;;7.30;;
1380;SDS011;684;48.342;10.096;2022-10-30T03:43:04;13.60;;;6.90;;
1380;SDS011;684;48.342;10.096;2022-10-30T03:45:31;16.03;;;7.97;;
1380;SDS011;684;48.342;10.096;2022-10-30T03:48:00;15.10;;;7.70;;
1380;SDS011;684;48.342;10.096;2022-10-30T03:50:27;15.57;;;8.10;;
1380;SDS011;684;48.342;10.096;2022-10-30T03:52:53;13.83;;;7.43;;
1380;SDS011;684;48.342;10.096;2022-10-30T03:55:21;15.63;;;7.83;;
1380;SDS011;684;48.342;10.096;2022-10-30T03:57:48;18.03;;;9.10;;
1380;SDS011;684;48.342;10.096;2022-10-30T04:00:15;18.50;;;8.17;;
1380;SDS011;684;48.342;10.096;2022-10-30T04:02:44;15.83;;;8.60;;
1380;SDS011;684;48.342;10.096;2022-10-30T04:05:12;12.80;;;8.57;;
1380;SDS011;684;48.342;10.096;2022-10-30T04:07:40;13.77;;;7.70;;
1380;SDS011;684;48.342;10.096;2022-10-30T04:10:07;20.30;;;9.47;;
1380;SDS011;684;48.342;10.096;2022-10-30T04:12:34;16.43;;;8.53;;
1380;SDS011;684;48.342;10.096;2022-10-30T04:15:01;16.00;;;8.13;;
1380;SDS011;684;48.342;10.096;2022-10-30T04:17:27;16.00;;;8.00;;
1380;SDS011;684;48.342;10.096;2022-10-30T04:19:54;12.80;;;7.33;;
1380;SDS011;684;48.342;10.096;2022-10-30T04:22:22;13.70;;;7.50;;
1380;SDS011;684;48.342;10.096;2022-10-30T04:24:49;14.40;;;6.60;;
1380;SDS011;684;48.342;10.096;2022-10-30T04:27:17;14.00;;;7.07;;
1380;SDS011;684;48.342;10.096;2022-10-30T04:29:45;15.50;;;7.30;;
1380;SDS011;684;48.342;10.096;2022-10-30T04:32:11;12.90;;;7.57;;
1380;SDS011;684;48.342;10.096;2022-10-30T04:34:38;16.10;;;8.13;;
1380;SDS011;684;48.342;10.096;2022-10-30T04:37:05;13.33;;;7.43;;
1380;SDS011;684;48.342;10.096;2022-10-30T04:39:33;18.33;;;7.57;;
1380;SDS011;684;48.342;10.096;2022-10-30T04:42:00;12.57;;;7.07;;
1380;SDS011;684;48.342;10.096;2022-10-30T04:44:27;14.07;;;6.90;;
1380;SDS011;684;48.342;10.096;2022-10-30T04:46:53;12.37;;;7.37;;
1380;SDS011;684;48.342;10.096;2022-10-30T04:49:20;12.80;;;7.50;;
1380;SDS011;684;48.342;10.096;2022-10-30T04:51:47;13.43;;;7.23;;
1380;SDS011;684;48.342;10.096;2022-10-30T04:54:14;17.33;;;7.43;;
1380;SDS011;684;48.342;10.096;2022-10-30T04:56:42;11.93;;;7.47;;
1380;SDS011;684;48.342;10.096;2022-10-30T04:59:08;14.67;;;7.90;;
1380;SDS011;684;48.342;10.096;2022-10-30T05:01:35;16.13;;;6.60;;
1380;SDS011;684;48.342;10.096;2022-10-30T05:04:02;13.43;;;7.17;;
1380;SDS011;684;48.342;10.096;2022-10-30T05:06:29;16.53;;;6.90;;
1380;SDS011;684;48.342;10.096;2022-10-30T05:08:56;12.40;;;7.70;;
1380;SDS011;684;48.342;10.096;2022-10-30T05:11:23;16.87;;;6.53;;
1380;SDS011;684;48.342;10.096;2022-10-30T05:13:51;12.93;;;7.23;;
1380;SDS011;684;48.342;10.096;2022-10-30T05:16:18;18.00;;;7.33;;
1380;SDS011;684;48.342;10.096;2022-10-30T05:18:45;13.13;;;6.90;;
1380;SDS011;684;48.342;10.096;2022-10-30T05:21:11;15.50;;;7.87;;
1380;SDS011;684;48.342;10.096;2022-10-30T05:23:38;12.77;;;7.47;;
1380;SDS011;684;48.342;10.096;2022-10-30T05:26:05;22.03;;;7.10;;
1380;SDS011;684;48.342;10.096;2022-10-30T05:28:32;12.77;;;7.43;;
1380;SDS011;684;48.342;10.096;2022-10-30T05:31:00;16.90;;;8.97;;
1380;SDS011;684;48.342;10.096;2022-10-30T05:33:26;16.70;;;10.43;;
1380;SDS011;684;48.342;10.096;2022-10-30T05:35:53;21.67;;;12.40;;
1380;SDS011;684;48.342;10.096;2022-10-30T05:38:20;20.03;;;11.57;;
1380;SDS011;684;48.342;10.096;2022-10-30T05:40:47;23.10;;;10.80;;
1380;SDS011;684;48.342;10.096;2022-10-30T05:43:13;20.27;;;11.43;;
1380;SDS011;684;48.342;10.096;2022-10-30T05:45:40;17.10;;;11.93;;
1380;SDS011;684;48.342;10.096;2022-10-30T05:48:09;22.33;;;12.17;;
1380;SDS011;684;48.342;10.096;2022-10-30T05:50:36;18.70;;;11.20;;
1380;SDS011;684;48.342;10.096;2022-10-30T05:53:03;24.03;;;12.80;;
1380;SDS011;684;48.342;10.096;2022-10-30T05:55:30;18.50;;;11.90;;
1380;SDS011;684;48.342;10.096;2022-10-30T05:57:59;18.00;;;10.87;;
1380;SDS011;684;48.342;10.096;2022-10-30T06:00:28;17.93;;;10.60;;
1380;SDS011;684;48.342;10.096;2022-10-30T06:02:59;15.93;;;11.20;;
1380;SDS011;684;48.342;10.096;2022-10-30T06:05:28;23.63;;;13.67;;
1380;SDS011;684;48.342;10.096;2022-10-30T06:07:55;18.67;;;11.60;;
1380;SDS011;684;48.342;10.096;2022-10-30T06:10:23;18.10;;;11.50;;
1380;SDS011;684;48.342;10.096;2022-10-30T06:12:52;15.80;;;10.73;;
1380;SDS011;684;48.342;10.096;2022-10-30T06:15:19;13.80;;;10.13;;
1380;SDS011;684;48.342;10.096;2022-10-30T06:17:47;17.90;;;11.63;;
1380;SDS011;684;48.342;10.096;2022-10-30T06:20:14;22.10;;;11.93;;
1380;SDS011;684;48.342;10.096;2022-10-30T06:22:44;18.97;;;12.13;;
1380;SDS011;684;48.342;10.096;2022-10-30T06:25:19;25.53;;;14.90;;
1380;SDS011;684;48.342;10.096;2022-10-30T06:27:46;21.43;;;13.40;;
1380;SDS011;684;48.342;10.096;2022-10-30T06:30:13;23.93;;;13.80;;
1380;SDS011;684;48.342;10.096;2022-10-30T06:32:39;22.53;;;13.37;;
1380;SDS011;684;48.342;10.096;2022-10-30T06:35:06;23.10;;;14.27;;
1380;SDS011;684;48.342;10.096;2022-10-30T06:37:34;26.37;;;11.73;;
1380;SDS011;684;48.342;10.096;2022-10-30T06:40:05;21.83;;;12.33;;
1380;SDS011;684;48.342;10.096;2022-10-30T06:42:33;21.07;;;12.50;;
1380;SDS011;684;48.342;10.096;2022-10-30T06:45:07;22.97;;;13.10;;
1380;SDS011;684;48.342;10.096;2022-10-30T06:47:35;18.80;;;12.40;;
1380;SDS011;684;48.342;10.096;2022-10-30T06:50:02;21.57;;;11.67;;
1380;SDS011;684;48.342;10.096;2022-10-30T06:52:29;16.87;;;10.73;;
1380;SDS011;684;48.342;10.096;2022-10-30T06:54:56;22.60;;;11.40;;
1380;SDS011;684;48.342;10.096;2022-10-30T06:57:24;19.63;;;11.17;;
1380;SDS011;684;48.342;10.096;2022-10-30T06:59:51;18.70;;;12.03;;
1380;SDS011;684;48.342;10.096;2022-10-30T07:02:18;20.27;;;11.20;;
1380;SDS011;684;48.342;10.096;2022-10-30T07:04:45;18.53;;;9.77;;
1380;SDS011;684;48.342;10.096;2022-10-30T07:07:11;22.50;;;11.53;;
1380;SDS011;684;48.342;10.096;2022-10-30T07:09:39;18.70;;;10.87;;
1380;SDS011;684;48.342;10.096;2022-10-30T07:12:06;19.00;;;9.00;;
1380;SDS011;684;48.342;10.096;2022-10-30T07:14:35;16.57;;;9.17;;
1380;SDS011;684;48.342;10.096;2022-10-30T07:17:01;16.80;;;9.07;;
1380;SDS011;684;48.342;10.096;2022-10-30T07:19:28;20.27;;;8.43;;
1380;SDS011;684;48.342;10.096;2022-10-30T07:21:55;12.23;;;7.87;;
1380;SDS011;684;48.342;10.096;2022-10-30T07:24:22;15.23;;;7.73;;
1380;SDS011;684;48.342;10.096;2022-10-30T07:26:48;14.17;;;7.93;;
1380;SDS011;684;48.342;10.096;2022-10-30T07:29:15;14.10;;;6.80;;
1380;SDS011;684;48.342;10.096;2022-10-30T07:31:43;12.37;;;6.53;;
1380;SDS011;684;48.342;10.096;2022-10-30T07:34:11;13.13;;;7.50;;
1380;SDS011;684;48.342;10.096;2022-10-30T07:36:38;14.70;;;7.37;;
1380;SDS011;684;48.342;10.096;2022-10-30T07:39:05;11.07;;;6.20;;
1380;SDS011;684;48.342;10.096;2022-10-30T07:41:31;11.00;;;6.27;;
1380;SDS011;684;48.342;10.096;2022-10-30T07:43:58;12.70;;;6.90;;
1380;SDS011;684;48.342;10.096;2022-10-30T07:46:25;11.40;;;6.37;;
1380;SDS011;684;48.342;10.096;2022-10-30T07:48:53;16.33;;;6.30;;
1380;SDS011;684;48.342;10.096;2022-10-30T07:51:20;11.67;;;7.10;;
1380;SDS011;684;48.342;10.096;2022-10-30T07:53:47;15.77;;;6.80;;
1380;SDS011;684;48.342;10.096;2022-10-30T07:56:14;14.30;;;7.57;;
1380;SDS011;684;48.342;10.096;2022-10-30T07:58:41;11.93;;;7.40;;
1380;SDS011;684;48.342;10.096;2022-10-30T08:01:08;17.50;;;8.33;;
1380;SDS011;684;48.342;10.096;2022-10-30T08:03:34;13.20;;;8.33;;
1380;SDS011;684;48.342;10.096;2022-10-30T08:06:03;15.07;;;9.10;;
1380;SDS011;684;48.342;10.096;2022-10-30T08:08:30;15.30;;;9.90;;
1380;SDS011;684;48.342;10.096;2022-10-30T08:10:57;13.47;;;9.20;;
1380;SDS011;684;48.342;10.096;2022-10-30T08:13:23;15.60;;;9.47;;
1380;SDS011;684;48.342;10.096;2022-10-30T08:15:50;17.20;;;8.67;;
1380;SDS011;684;48.342;10.096;2022-10-30T08:18:17;12.67;;;9.30;;
1380;SDS011;684;48.342;10.096;2022-10-30T08:20:46;13.67;;;9.50;;
1380;SDS011;684;48.342;10.096;2022-10-30T08:23:15;14.97;;;8.80;;
1380;SDS011;684;48.342;10.096;2022-10-30T08:25:43;14.70;;;10.17;;
1380;SDS011;684;48.342;10.096;2022-10-30T08:28:11;16.63;;;9.57;;
1380;SDS011;684;48.342;10.096;2022-10-30T08:30:38;12.20;;;8.83;;
1380;SDS011;684;48.342;10.096;2022-10-30T08:33:05;12.00;;;8.93;;
1380;SDS011;684;48.342;10.096;2022-10-30T08:35:35;16.63;;;10.17;;
1380;SDS011;684;48.342;10.096;2022-10-30T08:38:01;15.00;;;10.30;;
1380;SDS011;684;48.342;10.096;2022-10-30T08:40:30;15.43;;;10.90;;
1380;SDS011;684;48.342;10.096;2022-10-30T08:42:56;13.00;;;9.17;;
1380;SDS011;684;48.342;10.096;2022-10-30T08:45:23;20.37;;;11.37;;
1380;SDS011;684;48.342;10.096;2022-10-30T08:47:54;13.93;;;9.63;;
1380;SDS011;684;48.342;10.096;2022-10-30T08:50:22;15.47;;;10.50;;
1380;SDS011;684;48.342;10.096;2022-10-30T08:52:49;15.03;;;9.90;;
1380;SDS011;684;48.342;10.096;2022-10-30T08:55:15;13.97;;;10.60;;
1380;SDS011;684;48.342;10.096;2022-10-30T08:57:44;14.50;;;10.60;;
1380;SDS011;684;48.342;10.096;2022-10-30T09:00:11;14.97;;;9.37;;
1380;SDS011;684;48.342;10.096;2022-10-30T09:02:38;10.20;;;9.20;;
1380;SDS011;684;48.342;10.096;2022-10-30T09:05:05;20.30;;;9.87;;
1380;SDS011;684;48.342;10.096;2022-10-30T09:07:33;12.13;;;9.33;;
1380;SDS011;684;48.342;10.096;2022-10-30T09:10:00;11.93;;;9.27;;
1380;SDS011;684;48.342;10.096;2022-10-30T09:12:27;12.33;;;8.13;;
1380;SDS011;684;48.342;10.096;2022-10-30T09:14:55;12.30;;;8.37;;
1380;SDS011;684;48.342;10.096;2022-10-30T09:17:21;17.33;;;8.67;;
1380;SDS011;684;48.342;10.096;2022-10-30T09:19:48;12.50;;;8.80;;
1380;SDS011;684;48.342;10.096;2022-10-30T09:22:15;10.30;;;8.10;;
1380;SDS011;684;48.342;10.096;2022-10-30T09:24:42;15.20;;;9.07;;
1380;SDS011;684;48.342;10.096;2022-10-30T09:27:10;13.20;;;9.10;;
1380;SDS011;684;48.342;10.096;2022-10-30T09:29:38;10.60;;;8.17;;
1380;SDS011;684;48.342;10.096;2022-10-30T09:32:06;15.97;;;8.30;;
1380;SDS011;684;48.342;10.096;2022-10-30T09:34:35;13.87;;;8.17;;
1380;SDS011;684;48.342;10.096;2022-10-30T09:37:03;10.77;;;8.00;;
1380;SDS011;684;48.342;10.096;2022-10-30T09:39:31;13.53;;;7.80;;
1380;SDS011;684;48.342;10.096;2022-10-30T09:42:05;10.90;;;8.33;;
1380;SDS011;684;48.342;10.096;2022-10-30T09:44:55;18.10;;;8.57;;
1380;SDS011;684;48.342;10.096;2022-10-30T09:47:33;12.40;;;8.50;;
1380;SDS011;684;48.342;10.096;2022-10-30T09:50:16;14.43;;;8.17;;
1380;SDS011;684;48.342;10.096;2022-10-30T09:52:55;12.60;;;7.53;;
1380;SDS011;684;48.342;10.096;2022-10-30T09:55:36;11.30;;;8.70;;
1380;SDS011;684;48.342;10.096;2022-10-30T09:58:17;13.90;;;8.17;;
1380;SDS011;684;48.342;10.096;2022-10-30T10:00:49;14.93;;;8.00;;
1380;SDS011;684;48.342;10.096;2022-10-30T10:03:32;15.57;;;9.20;;
1380;SDS011;684;48.342;10.096;2022-10-30T10:06:11;11.30;;;7.37;;
1380;SDS011;684;48.342;10.096;2022-10-30T10:08:43;10.70;;;7.73;;
1380;SDS011;684;48.342;10.096;2022-10-30T10:11:14;13.67;;;8.90;;
1380;SDS011;684;48.342;10.096;2022-10-30T10:13:46;12.97;;;8.67;;
1380;SDS011;684;48.342;10.096;2022-10-30T10:16:19;11.83;;;8.13;;
1380;SDS011;684;48.342;10.096;2022-10-30T10:18:54;12.43;;;8.53;;
1380;SDS011;684;48.342;10.096;2022-10-30T10:21:28;12.10;;;7.80;;
1380;SDS011;684;48.342;10.096;2022-10-30T10:23:55;12.20;;;7.10;;
1380;SDS011;684;48.342;10.096;2022-10-30T10:26:28;13.33;;;8.90;;
1380;SDS011;684;48.342;10.096;2022-10-30T10:29:03;13.00;;;7.60;;
1380;SDS011;684;48.342;10.096;2022-10-30T10:31:42;13.53;;;7.27;;
1380;SDS011;684;48.342;10.096;2022-10-30T10:34:26;11.13;;;7.03;;
1380;SDS011;684;48.342;10.096;2022-10-30T10:37:07;14.10;;;8.07;;
1380;SDS011;684;48.342;10.096;2022-10-30T10:39:51;15.40;;;8.77;;
1380;SDS011;684;48.342;10.096;2022-10-30T10:42:35;14.90;;;8.63;;
1380;SDS011;684;48.342;10.096;2022-10-30T10:45:15;19.03;;;8.70;;
1380;SDS011;684;48.342;10.096;2022-10-30T10:47:52;12.10;;;8.33;;
1380;SDS011;684;48.342;10.096;2022-10-30T10:51:00;12.70;;;8.77;;
1380;SDS011;684;48.342;10.096;2022-10-30T10:53:33;21.33;;;9.73;;
1380;SDS011;684;48.342;10.096;2022-10-30T10:56:12;15.93;;;10.53;;
1380;SDS011;684;48.342;10.096;2022-10-30T10:58:47;15.17;;;9.40;;
1380;SDS011;684;48.342;10.096;2022-10-30T11:01:21;13.60;;;9.53;;
1380;SDS011;684;48.342;10.096;2022-10-30T11:03:53;10.90;;;7.80;;
1380;SDS011;684;48.342;10.096;2022-10-30T11:06:30;15.10;;;8.80;;
1380;SDS011;684;48.342;10.096;2022-10-30T11:09:12;12.83;;;9.10;;
1380;SDS011;684;48.342;10.096;2022-10-30T11:11:58;13.03;;;8.53;;
1380;SDS011;684;48.342;10.096;2022-10-30T11:14:27;12.33;;;7.73;;
1380;SDS011;684;48.342;10.096;2022-10-30T11:16:58;13.47;;;8.37;;
1380;SDS011;684;48.342;10.096;2022-10-30T11:19:31;15.83;;;7.60;;
1380;SDS011;684;48.342;10.096;2022-10-30T11:22:02;15.33;;;8.30;;
1380;SDS011;684;48.342;10.096;2022-10-30T11:24:46;16.90;;;8.47;;
1380;SDS011;684;48.342;10.096;2022-10-30T11:27:17;13.23;;;8.20;;
1380;SDS011;684;48.342;10.096;2022-10-30T11:29:53;12.20;;;7.20;;
1380;SDS011;684;48.342;10.096;2022-10-30T11:32:26;12.00;;;7.50;;
1380;SDS011;684;48.342;10.096;2022-10-30T11:35:01;13.93;;;7.30;;
1380;SDS011;684;48.342;10.096;2022-10-30T11:37:41;12.10;;;7.10;;
1380;SDS011;684;48.342;10.096;2022-10-30T11:40:17;14.43;;;6.87;;
1380;SDS011;684;48.342;10.096;2022-10-30T11:42:48;12.30;;;7.03;;
1380;SDS011;684;48.342;10.096;2022-10-30T11:45:25;11.07;;;6.57;;
1380;SDS011;684;48.342;10.096;2022-10-30T11:47:57;13.77;;;6.37;;
1380;SDS011;684;48.342;10.096;2022-10-30T11:50:27;17.43;;;7.33;;
1380;SDS011;684;48.342;10.096;2022-10-30T11:52:59;10.93;;;6.63;;
1380;SDS011;684;48.342;10.096;2022-10-30T11:55:38;13.00;;;6.77;;
1380;SDS011;684;48.342;10.096;2022-10-30T11:58:19;14.60;;;7.87;;
1380;SDS011;684;48.342;10.096;2022-10-30T12:00:59;11.03;;;7.13;;
1380;SDS011;684;48.342;10.096;2022-10-30T12:03:33;8.80;;;6.37;;
1380;SDS011;684;48.342;10.096;2022-10-30T12:06:16;15.83;;;7.03;;
1380;SDS011;684;48.342;10.096;2022-10-30T12:09:02;10.33;;;6.10;;
1380;SDS011;684;48.342;10.096;2022-10-30T12:11:37;12.10;;;6.83;;
1380;SDS011;684;48.342;10.096;2022-10-30T12:14:12;14.57;;;6.43;;
1380;SDS011;684;48.342;10.096;2022-10-30T12:16:43;14.47;;;6.20;;
1380;SDS011;684;48.342;10.096;2022-10-30T12:19:22;11.03;;;6.70;;
1380;SDS011;684;48.342;10.096;2022-10-30T12:21:53;13.73;;;7.03;;
1380;SDS011;684;48.342;10.096;2022-10-30T12:24:26;12.20;;;6.03;;
1380;SDS011;684;48.342;10.096;2022-10-30T12:27:02;12.10;;;6.87;;
1380;SDS011;684;48.342;10.096;2022-10-30T12:29:36;11.83;;;6.73;;
1380;SDS011;684;48.342;10.096;2022-10-30T12:32:08;12.83;;;5.50;;
1380;SDS011;684;48.342;10.096;2022-10-30T12:34:42;13.50;;;6.40;;
1380;SDS011;684;48.342;10.096;2022-10-30T12:37:17;11.97;;;6.10;;
1380;SDS011;684;48.342;10.096;2022-10-30T12:39:54;14.70;;;6.50;;
1380;SDS011;684;48.342;10.096;2022-10-30T12:42:33;13.13;;;6.00;;
1380;SDS011;684;48.342;10.096;2022-10-30T12:45:08;11.67;;;5.87;;
1380;SDS011;684;48.342;10.096;2022-10-30T12:47:41;18.00;;;6.00;;
1380;SDS011;684;48.342;10.096;2022-10-30T12:50:13;10.90;;;5.30;;
1380;SDS011;684;48.342;10.096;2022-10-30T12:52:47;12.30;;;5.40;;
1380;SDS011;684;48.342;10.096;2022-10-30T12:55:21;8.33;;;4.13;;
1380;SDS011;684;48.342;10.096;2022-10-30T12:57:53;8.30;;;5.30;;
1380;SDS011;684;48.342;10.096;2022-10-30T13:00:28;8.00;;;5.13;;
1380;SDS011;684;48.342;10.096;2022-10-30T13:02:58;10.07;;;6.00;;
1380;SDS011;684;48.342;10.096;2022-10-30T13:05:31;12.53;;;5.30;;
1380;SDS011;684;48.342;10.096;2022-10-30T13:08:13;11.93;;;5.50;;
1380;SDS011;684;48.342;10.096;2022-10-30T13:10:48;14.43;;;5.00;;
1380;SDS011;684;48.342;10.096;2022-10-30T13:13:19;10.17;;;4.73;;
1380;SDS011;684;48.342;10.096;2022-10-30T13:15:49;11.60;;;4.63;;
1380;SDS011;684;48.342;10.096;2022-10-30T13:18:19;12.73;;;5.50;;
1380;SDS011;684;48.342;10.096;2022-10-30T13:20:52;12.03;;;5.73;;
1380;SDS011;684;48.342;10.096;2022-10-30T13:23:27;11.30;;;5.03;;
1380;SDS011;684;48.342;10.096;2022-10-30T13:26:06;13.47;;;4.97;;
1380;SDS011;684;48.342;10.096;2022-10-30T13:28:42;9.87;;;4.53;;
1380;SDS011;684;48.342;10.096;2022-10-30T13:31:16;12.50;;;4.90;;
1380;SDS011;684;48.342;10.096;2022-10-30T13:33:52;11.33;;;5.40;;
1380;SDS011;684;48.342;10.096;2022-10-30T13:36:28;9.70;;;5.20;;
1380;SDS011;684;48.342;10.096;2022-10-30T13:39:02;11.20;;;4.63;;
1380;SDS011;684;48.342;10.096;2022-10-30T13:41:47;11.50;;;5.70;;
1380;SDS011;684;48.342;10.096;2022-10-30T13:44:25;17.30;;;5.70;;
1380;SDS011;684;48.342;10.096;2022-10-30T13:47:06;14.93;;;5.20;;
1380;SDS011;684;48.342;10.096;2022-10-30T13:49:46;11.43;;;5.80;;
1380;SDS011;684;48.342;10.096;2022-10-30T13:52:26;9.97;;;5.43;;
1380;SDS011;684;48.342;10.096;2022-10-30T13:54:56;12.67;;;5.20;;
1380;SDS011;684;48.342;10.096;2022-10-30T13:57:27;11.37;;;5.00;;
1380;SDS011;684;48.342;10.096;2022-10-30T14:00:01;10.90;;;5.20;;
1380;SDS011;684;48.342;10.096;2022-10-30T14:02:38;14.70;;;5.20;;
1380;SDS011;684;48.342;10.096;2022-10-30T14:05:19;14.03;;;5.97;;
1380;SDS011;684;48.342;10.096;2022-10-30T14:07:58;9.20;;;4.20;;
1380;SDS011;684;48.342;10.096;2022-10-30T14:10:39;10.93;;;5.77;;
1380;SDS011;684;48.342;10.096;2022-10-30T14:13:15;10.53;;;5.43;;
1380;SDS011;684;48.342;10.096;2022-10-30T14:15:51;11.97;;;4.70;;
1380;SDS011;684;48.342;10.096;2022-10-30T14:18:30;8.00;;;4.07;;
1380;SDS011;684;48.342;10.096;2022-10-30T14:21:29;11.80;;;5.03;;
1380;SDS011;684;48.342;10.096;2022-10-30T14:24:10;13.43;;;5.10;;
1380;SDS011;684;48.342;10.096;2022-10-30T14:26:39;12.30;;;4.60;;
1380;SDS011;684;48.342;10.096;2022-10-30T14:29:37;12.43;;;4.70;;
1380;SDS011;684;48.342;10.096;2022-10-30T14:35:30;12.73;;;4.90;;
1380;SDS011;684;48.342;10.096;2022-10-30T14:41:04;11.27;;;6.27;;
1380;SDS011;684;48.342;10.096;2022-10-30T14:47:04;14.17;;;5.70;;
1380;SDS011;684;48.342;10.096;2022-10-30T14:49:48;14.53;;;5.50;;
1380;SDS011;684;48.342;10.096;2022-10-30T14:52:23;14.43;;;5.70;;
1380;SDS011;684;48.342;10.096;2022-10-30T14:54:58;11.17;;;6.20;;
1380;SDS011;684;48.342;10.096;2022-10-30T14:57:43;11.17;;;5.20;;
1380;SDS011;684;48.342;10.096;2022-10-30T15:03:05;13.07;;;5.93;;
1380;SDS011;684;48.342;10.096;2022-10-30T15:05:42;12.17;;;6.50;;
1380;SDS011;684;48.342;10.096;2022-10-30T15:08:18;13.20;;;6.03;;
1380;SDS011;684;48.342;10.096;2022-10-30T15:10:59;15.40;;;6.17;;
1380;SDS011;684;48.342;10.096;2022-10-30T15:13:44;12.10;;;6.80;;
1380;SDS011;684;48.342;10.096;2022-10-30T15:16:13;11.33;;;5.93;;
1380;SDS011;684;48.342;10.096;2022-10-30T15:18:45;12.93;;;5.63;;
1380;SDS011;684;48.342;10.096;2022-10-30T15:21:14;12.80;;;7.00;;
1380;SDS011;684;48.342;10.096;2022-10-30T15:23:47;13.97;;;6.00;;
1380;SDS011;684;48.342;10.096;2022-10-30T15:26:17;18.70;;;6.90;;
1380;SDS011;684;48.342;10.096;2022-10-30T15:28:46;15.10;;;6.77;;
1380;SDS011;684;48.342;10.096;2022-10-30T15:31:20;9.63;;;5.70;;
1380;SDS011;684;48.342;10.096;2022-10-30T15:33:49;11.17;;;6.60;;
1380;SDS011;684;48.342;10.096;2022-10-30T15:36:18;15.83;;;7.20;;
1380;SDS011;684;48.342;10.096;2022-10-30T15:39:01;12.70;;;7.73;;